Time;durP1;ratioP1;P1;durP2;ratioP2;P2;SDS_P1;SDS_P2;PMS_P1;PMS_P2;Temp;Humidity;BMP_temperature;BMP_pressure;BME280_temperature;BME280_humidity;BME280_pressure;Samples;Min_cycle;Max_cycle;Signal;HPM_P1;HPM_P2
2022/09/23 00:02:14;;;;;;;3.10;1.60;;;16.30;76.10;;;;;;5020136;28;20192;-75
2022/09/23 00:04:43;;;;;;;5.17;1.67;;;16.30;76.30;;;;;;5026961;28;20329;-75
2022/09/23 00:07:12;;;;;;;6.07;2.00;;;16.20;76.70;;;;;;5026164;28;20226;-75
2022/09/23 00:09:41;;;;;;;2.83;1.30;;;16.20;76.60;;;;;;5028086;28;20246;-75
2022/09/23 00:12:10;;;;;;;6.00;2.10;;;16.20;77.10;;;;;;5027082;28;20641;-76
2022/09/23 00:14:38;;;;;;;5.40;1.87;;;16.20;77.10;;;;;;5030160;28;20620;-75
2022/09/23 00:17:07;;;;;;;6.07;1.60;;;16.20;77.40;;;;;;5026469;28;20250;-75
2022/09/23 00:19:37;;;;;;;5.37;1.67;;;16.20;77.60;;;;;;5027312;28;20243;-75
2022/09/23 00:22:06;;;;;;;3.33;1.70;;;16.20;77.80;;;;;;5022998;28;20248;-76
2022/09/23 00:24:35;;;;;;;4.87;1.60;;;16.10;78.00;;;;;;5020461;28;20187;-75
2022/09/23 00:27:04;;;;;;;3.53;1.50;;;16.10;77.90;;;;;;5029517;28;20995;-75
2022/09/23 00:29:33;;;;;;;5.53;1.90;;;16.10;77.80;;;;;;5030689;28;20247;-75
2022/09/23 00:32:01;;;;;;;3.27;1.50;;;16.10;77.60;;;;;;5029318;28;20226;-75
2022/09/23 00:34:29;;;;;;;4.10;1.77;;;16.10;77.60;;;;;;5029682;28;20900;-75
2022/09/23 00:36:58;;;;;;;3.10;1.40;;;16.00;77.50;;;;;;5023524;28;20572;-75
2022/09/23 00:39:26;;;;;;;3.80;1.60;;;16.00;77.50;;;;;;5025980;28;20224;-75
2022/09/23 00:41:56;;;;;;;9.40;1.60;;;16.00;77.60;;;;;;5022197;28;20185;-75
2022/09/23 00:44:46;;;;;;;4.27;1.50;;;16.00;77.40;;;;;;5027001;28;20758;-76
2022/09/23 00:47:19;;;;;;;3.27;1.50;;;16.00;77.50;;;;;;5014782;28;20606;-78
2022/09/23 00:49:52;;;;;;;4.90;1.20;;;15.90;77.50;;;;;;5020816;28;20239;-76
2022/09/23 00:52:23;;;;;;;5.23;1.67;;;15.90;77.50;;;;;;5023865;28;20199;-77
2022/09/23 00:54:55;;;;;;;2.77;1.63;;;15.90;77.50;;;;;;5025943;28;20496;-75
2022/09/23 00:57:27;;;;;;;4.20;1.50;;;15.90;77.50;;;;;;5023726;28;20227;-76
2022/09/23 00:59:56;;;;;;;2.80;1.27;;;15.90;77.50;;;;;;5024959;28;20646;-76
2022/09/23 01:02:25;;;;;;;2.80;1.27;;;15.80;77.40;;;;;;5020505;28;20656;-75
2022/09/23 01:04:54;;;;;;;3.30;1.43;;;15.80;77.40;;;;;;5026832;28;20279;-75
2022/09/23 01:07:23;;;;;;;2.80;1.70;;;15.80;77.40;;;;;;5029411;28;20231;-77
2022/09/23 01:09:51;;;;;;;3.20;1.50;;;15.80;77.50;;;;;;5015704;28;20247;-75
2022/09/23 01:12:37;;;;;;;2.73;1.47;;;15.80;77.50;;;;;;5026848;28;20215;-76
2022/09/23 01:15:14;;;;;;;2.97;1.40;;;15.80;77.60;;;;;;5026885;28;20252;-75
2022/09/23 01:17:51;;;;;;;3.10;1.67;;;15.80;77.60;;;;;;5027252;28;20695;-75
2022/09/23 01:20:45;;;;;;;2.73;1.40;;;15.80;77.60;;;;;;5030186;28;20225;-75
2022/09/23 01:23:33;;;;;;;3.10;1.20;;;15.80;77.60;;;;;;5030302;28;20224;-76
2022/09/23 01:26:24;;;;;;;3.20;1.47;;;15.80;77.50;;;;;;5018273;28;20649;-76
2022/09/23 01:29:17;;;;;;;3.10;1.40;;;15.80;77.60;;;;;;5025115;28;20234;-75
2022/09/23 01:31:54;;;;;;;2.80;1.37;;;15.80;77.70;;;;;;5025850;28;20255;-76
2022/09/23 01:34:32;;;;;;;3.60;1.50;;;15.70;77.60;;;;;;5020795;28;20246;-75
2022/09/23 01:37:10;;;;;;;4.37;1.70;;;15.70;77.60;;;;;;5023020;28;20702;-75
2022/09/23 01:39:42;;;;;;;2.90;1.27;;;15.80;77.70;;;;;;5024209;28;20187;-75
2022/09/23 01:42:17;;;;;;;3.53;1.70;;;15.70;77.80;;;;;;5028344;28;20242;-75
2022/09/23 01:44:51;;;;;;;2.67;1.30;;;15.80;78.00;;;;;;5022668;28;20273;-76
2022/09/23 01:47:28;;;;;;;2.63;1.20;;;15.80;78.20;;;;;;5021005;28;20279;-77
2022/09/23 01:50:00;;;;;;;3.83;1.30;;;15.80;78.10;;;;;;5018596;28;20657;-76
2022/09/23 01:52:35;;;;;;;3.87;1.50;;;15.80;78.00;;;;;;5030756;28;20192;-75
2022/09/23 01:55:10;;;;;;;2.60;1.43;;;15.80;78.10;;;;;;5028086;28;20609;-76
2022/09/23 01:57:42;;;;;;;5.60;1.50;;;15.80;78.10;;;;;;5022926;28;20595;-79
2022/09/23 02:00:15;;;;;;;2.63;1.13;;;15.80;78.00;;;;;;5020987;28;20616;-77
2022/09/23 02:02:51;;;;;;;4.40;1.40;;;15.80;78.00;;;;;;5022279;28;20227;-76
2022/09/23 02:05:24;;;;;;;6.70;1.90;;;15.80;78.20;;;;;;5027039;28;20193;-75
2022/09/23 02:07:58;;;;;;;2.40;1.60;;;15.80;78.20;;;;;;5023511;28;20255;-76
2022/09/23 02:10:32;;;;;;;3.47;1.87;;;15.80;78.20;;;;;;5022063;28;20214;-75
2022/09/23 02:13:05;;;;;;;4.03;1.63;;;15.80;78.00;;;;;;5016066;28;20470;-76
2022/09/23 02:15:37;;;;;;;3.73;1.97;;;15.70;78.00;;;;;;5029177;28;20660;-75
2022/09/23 02:18:12;;;;;;;6.30;2.10;;;15.70;77.90;;;;;;5022964;28;20659;-75
2022/09/23 02:20:40;;;;;;;2.97;1.50;;;15.80;78.00;;;;;;5017868;28;20216;-76
2022/09/23 02:23:12;;;;;;;5.60;2.20;;;15.80;77.90;;;;;;5019104;28;20196;-75
2022/09/23 02:25:48;;;;;;;3.53;1.60;;;15.80;77.80;;;;;;5017915;28;20596;-76
2022/09/23 02:28:19;;;;;;;4.13;1.80;;;15.80;77.80;;;;;;5018694;28;20273;-75
2022/09/23 02:30:50;;;;;;;4.30;1.83;;;15.80;77.70;;;;;;5010164;28;20208;-75
2022/09/23 02:33:23;;;;;;;4.33;2.00;;;15.80;77.70;;;;;;5025630;28;20296;-75
2022/09/23 02:35:55;;;;;;;3.77;2.00;;;15.80;77.70;;;;;;5025745;28;20219;-76
2022/09/23 02:38:33;;;;;;;5.50;1.80;;;15.80;77.70;;;;;;5012863;28;20290;-76
2022/09/23 02:41:08;;;;;;;4.43;1.80;;;15.80;77.60;;;;;;5028792;28;20338;-75
2022/09/23 02:43:45;;;;;;;5.13;2.20;;;15.80;77.60;;;;;;5016187;28;20302;-76
2022/09/23 02:46:14;;;;;;;3.63;1.90;;;15.80;77.70;;;;;;5012003;28;20262;-76
2022/09/23 02:48:49;;;;;;;3.57;2.00;;;15.80;77.80;;;;;;5021587;28;20195;-76
2022/09/23 02:51:18;;;;;;;4.00;2.00;;;15.80;77.90;;;;;;5026517;28;20211;-76
2022/09/23 02:53:47;;;;;;;6.17;2.23;;;15.80;78.20;;;;;;5030692;28;20278;-76
2022/09/23 02:56:18;;;;;;;4.27;1.70;;;15.70;78.30;;;;;;5015318;28;20883;-75
2022/09/23 02:58:47;;;;;;;6.63;1.87;;;15.70;78.50;;;;;;5023494;28;20206;-76
2022/09/23 03:01:31;;;;;;;4.10;2.10;;;15.70;78.50;;;;;;5017097;28;20192;-76
2022/09/23 03:04:11;;;;;;;4.33;1.87;;;15.70;78.80;;;;;;5015121;28;20258;-76
2022/09/23 03:06:47;;;;;;;5.33;2.57;;;15.70;78.70;;;;;;5028308;28;20638;-78
2022/09/23 03:09:19;;;;;;;5.47;2.00;;;15.70;78.80;;;;;;5027736;28;20265;-76
2022/09/23 03:12:05;;;;;;;7.17;2.20;;;15.70;78.80;;;;;;5019355;28;20307;-75
2022/09/23 03:14:43;;;;;;;4.77;1.83;;;15.70;78.80;;;;;;5017481;28;20184;-76
2022/09/23 03:17:18;;;;;;;5.17;1.77;;;15.70;78.90;;;;;;5023539;28;20230;-75
2022/09/23 03:19:55;;;;;;;4.87;1.87;;;15.70;78.90;;;;;;5025823;28;20191;-75
2022/09/23 03:22:29;;;;;;;7.00;2.13;;;15.70;79.10;;;;;;5030129;28;20199;-76
2022/09/23 03:25:03;;;;;;;5.47;2.17;;;15.70;79.00;;;;;;5029616;28;20229;-76
2022/09/23 03:27:34;;;;;;;6.10;2.17;;;15.70;79.00;;;;;;5029907;28;20188;-76
2022/09/23 03:30:05;;;;;;;5.57;2.20;;;15.70;78.90;;;;;;5028119;28;20279;-75
2022/09/23 03:32:35;;;;;;;4.67;1.90;;;15.70;78.90;;;;;;5027695;28;20223;-75
2022/09/23 03:35:06;;;;;;;4.20;1.90;;;15.70;78.90;;;;;;5019655;28;20260;-76
2022/09/23 03:37:39;;;;;;;4.43;2.00;;;15.70;78.90;;;;;;5020108;28;20231;-75
2022/09/23 03:40:13;;;;;;;5.33;2.40;;;15.80;79.00;;;;;;5018652;28;20656;-75
2022/09/23 03:42:42;;;;;;;7.03;1.93;;;15.70;78.90;;;;;;5025201;28;20192;-76
2022/09/23 03:45:17;;;;;;;4.20;1.97;;;15.70;79.00;;;;;;5022684;28;20196;-76
2022/09/23 03:47:45;;;;;;;6.40;2.23;;;15.70;79.10;;;;;;5013864;28;20258;-77
2022/09/23 03:50:16;;;;;;;4.93;2.27;;;15.70;79.00;;;;;;5011934;28;20196;-77
2022/09/23 03:52:45;;;;;;;4.07;2.00;;;15.70;79.20;;;;;;5008209;28;20228;-76
2022/09/23 03:55:15;;;;;;;6.87;2.87;;;15.70;79.20;;;;;;5029568;28;20257;-76
2022/09/23 03:57:44;;;;;;;6.70;2.57;;;15.70;79.20;;;;;;5020451;28;20247;-75
2022/09/23 04:00:14;;;;;;;6.77;2.73;;;15.60;79.20;;;;;;5023789;28;20231;-76
2022/09/23 04:02:43;;;;;;;11.00;2.20;;;15.60;79.40;;;;;;5026640;28;20196;-76
2022/09/23 04:05:12;;;;;;;6.03;2.40;;;15.60;79.40;;;;;;5014773;28;20201;-76
2022/09/23 04:07:42;;;;;;;5.00;2.40;;;15.60;79.70;;;;;;5024845;28;20219;-76
2022/09/23 04:10:11;;;;;;;4.97;2.60;;;15.60;79.60;;;;;;5030574;28;20192;-75
2022/09/23 04:12:39;;;;;;;4.50;2.53;;;15.60;79.70;;;;;;5024190;28;20277;-77
2022/09/23 04:15:08;;;;;;;4.80;2.13;;;15.60;79.70;;;;;;5024056;28;20231;-75
2022/09/23 04:17:36;;;;;;;6.30;2.40;;;15.60;79.70;;;;;;5022322;28;20254;-76
2022/09/23 04:20:06;;;;;;;4.40;2.07;;;15.60;79.70;;;;;;5019011;28;20283;-76
2022/09/23 04:22:34;;;;;;;5.27;2.67;;;15.60;79.80;;;;;;5027099;28;20236;-76
2022/09/23 04:25:04;;;;;;;7.60;2.63;;;15.60;79.80;;;;;;5016885;28;20196;-76
2022/09/23 04:27:33;;;;;;;4.57;2.30;;;15.60;79.90;;;;;;5025335;28;21809;-76
2022/09/23 04:30:05;;;;;;;6.17;2.43;;;15.60;80.00;;;;;;5033614;28;20218;-76
2022/09/23 04:32:34;;;;;;;4.70;2.77;;;15.60;79.90;;;;;;5023994;28;20242;-76
2022/09/23 04:35:02;;;;;;;6.90;2.60;;;15.60;79.90;;;;;;5025395;28;20224;-75
2022/09/23 04:37:30;;;;;;;6.50;2.77;;;15.60;79.90;;;;;;5021312;28;20202;-76
2022/09/23 04:39:59;;;;;;;5.97;3.50;;;15.60;80.00;;;;;;5025685;28;20230;-77
2022/09/23 04:42:30;;;;;;;12.17;5.77;;;15.60;80.10;;;;;;5028706;28;20228;-76
2022/09/23 04:44:58;;;;;;;6.37;3.30;;;15.60;80.40;;;;;;5032016;28;20224;-77
2022/09/23 04:47:27;;;;;;;12.70;3.63;;;15.60;80.50;;;;;;5016093;28;20246;-77
2022/09/23 04:49:55;;;;;;;5.23;3.20;;;15.50;80.40;;;;;;5017989;28;20197;-75
2022/09/23 04:52:27;;;;;;;8.87;2.97;;;15.60;80.50;;;;;;5012592;28;20274;-76
2022/09/23 04:54:55;;;;;;;8.93;3.10;;;15.60;80.50;;;;;;5031239;28;20245;-76
2022/09/23 04:57:23;;;;;;;5.60;3.17;;;15.60;80.60;;;;;;5020977;28;20539;-76
2022/09/23 04:59:56;;;;;;;7.13;3.00;;;15.60;80.60;;;;;;5023927;28;20684;-76
2022/09/23 05:02:24;;;;;;;5.10;3.00;;;15.60;80.70;;;;;;5023884;28;20318;-76
2022/09/23 05:04:52;;;;;;;15.57;3.80;;;15.70;80.70;;;;;;5018269;28;20196;-76
2022/09/23 05:07:21;;;;;;;7.20;3.23;;;15.70;80.80;;;;;;5025846;28;20242;-76
2022/09/23 05:09:49;;;;;;;9.20;4.00;;;15.70;80.70;;;;;;5027148;28;20227;-76
2022/09/23 05:12:17;;;;;;;6.53;3.30;;;15.80;80.80;;;;;;5022834;28;20324;-75
2022/09/23 05:14:45;;;;;;;6.37;3.20;;;15.80;80.90;;;;;;5017145;28;20644;-76
2022/09/23 05:17:15;;;;;;;5.97;3.60;;;15.80;80.80;;;;;;5024461;28;20664;-76
2022/09/23 05:19:44;;;;;;;5.23;2.67;;;15.80;80.90;;;;;;5030332;28;20223;-76
2022/09/23 05:22:12;;;;;;;8.13;3.17;;;15.80;80.70;;;;;;5027478;28;20187;-77
2022/09/23 05:24:40;;;;;;;5.23;2.67;;;15.90;80.80;;;;;;5028835;28;20220;-76
2022/09/23 05:27:09;;;;;;;6.17;2.47;;;15.90;80.30;;;;;;5029815;28;20234;-76
2022/09/23 05:29:37;;;;;;;9.93;2.80;;;16.00;80.00;;;;;;5024137;28;20228;-76
2022/09/23 05:32:06;;;;;;;4.17;2.40;;;16.00;79.70;;;;;;5016988;28;20312;-76
2022/09/23 05:34:36;;;;;;;4.87;2.83;;;16.00;79.40;;;;;;5022268;28;20310;-76
2022/09/23 05:37:05;;;;;;;8.40;2.57;;;16.00;79.30;;;;;;5020163;28;20204;-77
2022/09/23 05:39:33;;;;;;;7.93;3.83;;;16.00;79.40;;;;;;5027369;28;20594;-76
2022/09/23 05:42:01;;;;;;;6.70;2.53;;;16.00;79.40;;;;;;5023010;28;20608;-76
2022/09/23 05:44:30;;;;;;;6.73;3.53;;;16.00;79.50;;;;;;5013758;28;20192;-76
2022/09/23 05:46:58;;;;;;;5.90;2.60;;;16.10;79.70;;;;;;5015515;28;20203;-76
2022/09/23 05:49:26;;;;;;;9.13;2.77;;;16.00;79.50;;;;;;5021717;28;20188;-76
2022/09/23 05:52:16;;;;;;;7.43;3.30;;;16.10;79.50;;;;;;5019892;28;20228;-76
2022/09/23 05:54:44;;;;;;;5.50;2.50;;;16.10;79.20;;;;;;5027275;28;20726;-76
2022/09/23 05:57:13;;;;;;;5.70;2.33;;;16.20;79.10;;;;;;5028858;28;20544;-76
2022/09/23 05:59:42;;;;;;;6.93;2.47;;;16.20;79.00;;;;;;5021113;28;20661;-75
2022/09/23 06:02:10;;;;;;;5.90;2.57;;;16.20;78.80;;;;;;5033110;28;20813;-76
2022/09/23 06:04:39;;;;;;;5.73;2.83;;;16.20;78.40;;;;;;5026171;28;20196;-75
2022/09/23 06:07:07;;;;;;;5.33;2.40;;;16.30;78.30;;;;;;5027063;28;20187;-75
2022/09/23 06:09:37;;;;;;;4.53;2.27;;;16.30;77.90;;;;;;5024987;28;20196;-75
2022/09/23 06:12:06;;;;;;;6.20;2.40;;;16.30;77.50;;;;;;5033031;28;20199;-77
2022/09/23 06:14:34;;;;;;;5.07;2.50;;;16.30;77.10;;;;;;5031353;28;20238;-76
2022/09/23 06:17:04;;;;;;;4.13;2.27;;;16.30;77.00;;;;;;5035307;28;20599;-76
2022/09/23 06:19:32;;;;;;;4.53;2.50;;;16.40;77.10;;;;;;5028651;28;20242;-76
2022/09/23 06:22:00;;;;;;;5.03;2.10;;;16.50;76.90;;;;;;5026753;28;20221;-76
2022/09/23 06:24:29;;;;;;;7.43;2.20;;;16.50;76.80;;;;;;5022853;28;20242;-76
2022/09/23 06:27:01;;;;;;;4.37;1.67;;;16.50;76.20;;;;;;5031256;28;20196;-76
2022/09/23 06:29:32;;;;;;;6.10;2.47;;;16.50;76.20;;;;;;5032258;28;20664;-76
2022/09/23 06:32:00;;;;;;;3.80;1.80;;;16.60;76.30;;;;;;5031761;28;20234;-76
2022/09/23 06:34:28;;;;;;;4.33;2.10;;;16.60;75.90;;;;;;5030183;28;20638;-75
2022/09/23 06:37:01;;;;;;;4.07;1.97;;;16.70;75.80;;;;;;5025443;28;20556;-76
2022/09/23 06:39:44;;;;;;;6.07;2.20;;;16.70;75.60;;;;;;5028312;28;20199;-75
2022/09/23 06:42:15;;;;;;;6.37;1.60;;;16.80;75.60;;;;;;5030978;28;20641;-76
2022/09/23 06:44:43;;;;;;;3.17;1.83;;;16.80;74.90;;;;;;5031086;28;20195;-75
2022/09/23 06:47:12;;;;;;;2.80;1.57;;;16.90;74.70;;;;;;5025555;28;20241;-76
2022/09/23 06:49:40;;;;;;;3.77;1.97;;;16.90;74.60;;;;;;5029169;28;20231;-75
2022/09/23 06:52:08;;;;;;;3.70;1.57;;;17.00;74.70;;;;;;5032445;28;20191;-76
2022/09/23 06:54:37;;;;;;;4.47;2.20;;;17.00;74.30;;;;;;5028107;28;20232;-75
2022/09/23 06:57:05;;;;;;;5.13;2.00;;;17.10;74.80;;;;;;5031618;28;20254;-75
2022/09/23 06:59:35;;;;;;;3.87;1.87;;;17.10;73.80;;;;;;5029817;28;20237;-76
2022/09/23 07:02:03;;;;;;;7.40;2.10;;;17.10;73.40;;;;;;5031807;28;20434;-76
2022/09/23 07:04:31;;;;;;;7.23;1.90;;;17.20;72.80;;;;;;5028322;28;20206;-75
2022/09/23 07:07:00;;;;;;;4.60;2.40;;;17.20;72.50;;;;;;5030890;28;20195;-76
2022/09/23 07:09:28;;;;;;;5.97;2.57;;;17.20;72.30;;;;;;5020295;28;20605;-76
2022/09/23 07:11:56;;;;;;;3.80;1.80;;;17.20;72.20;;;;;;5024773;28;20256;-76
2022/09/23 07:14:25;;;;;;;4.67;1.77;;;17.20;72.20;;;;;;5023723;28;20300;-76
2022/09/23 07:16:55;;;;;;;7.43;2.20;;;17.20;72.10;;;;;;5031610;28;20295;-76
2022/09/23 07:19:25;;;;;;;3.83;1.80;;;17.30;72.00;;;;;;5034156;28;20199;-75
2022/09/23 07:21:53;;;;;;;3.10;1.70;;;17.30;71.80;;;;;;5035717;28;20207;-75
2022/09/23 07:24:21;;;;;;;3.73;1.50;;;17.30;71.30;;;;;;5031961;28;20207;-76
2022/09/23 07:26:50;;;;;;;4.43;1.87;;;17.40;70.50;;;;;;5036786;28;20219;-75
2022/09/23 07:29:18;;;;;;;3.43;2.00;;;17.40;70.70;;;;;;5032391;28;20183;-76
2022/09/23 07:31:46;;;;;;;2.43;1.43;;;17.50;71.00;;;;;;5035526;28;20196;-75
2022/09/23 07:34:16;;;;;;;6.03;1.80;;;17.50;71.10;;;;;;5022779;28;20259;-76
2022/09/23 07:36:44;;;;;;;3.47;1.60;;;17.60;70.90;;;;;;5031913;28;20200;-76
2022/09/23 07:39:13;;;;;;;6.53;2.10;;;17.60;70.80;;;;;;5032113;28;20254;-76
2022/09/23 07:41:43;;;;;;;5.73;1.63;;;17.60;70.60;;;;;;5032169;28;20191;-75
2022/09/23 07:44:12;;;;;;;4.83;2.53;;;17.70;70.30;;;;;;5030881;28;20196;-75
2022/09/23 07:46:40;;;;;;;3.93;1.70;;;17.70;69.60;;;;;;5035132;28;20192;-75
2022/09/23 07:49:09;;;;;;;3.10;1.57;;;17.70;69.60;;;;;;5034791;28;20196;-76
2022/09/23 07:51:40;;;;;;;5.57;2.23;;;17.70;69.10;;;;;;5036247;28;20252;-75
2022/09/23 07:54:14;;;;;;;4.13;2.00;;;17.70;68.90;;;;;;5027542;28;20482;-76
2022/09/23 07:56:43;;;;;;;4.17;2.17;;;17.80;68.90;;;;;;5015047;28;20192;-75
2022/09/23 07:59:14;;;;;;;5.53;2.10;;;17.80;69.40;;;;;;5026971;28;20262;-75
2022/09/23 08:01:45;;;;;;;2.67;1.60;;;17.90;69.50;;;;;;5034638;28;20651;-75
2022/09/23 08:04:15;;;;;;;4.07;1.80;;;17.90;69.30;;;;;;5032625;28;20237;-75
2022/09/23 08:06:47;;;;;;;5.20;1.80;;;18.00;69.60;;;;;;5017820;28;20238;-75
2022/09/23 08:09:16;;;;;;;7.80;2.00;;;18.10;69.70;;;;;;5026063;28;20247;-75
2022/09/23 08:11:45;;;;;;;5.60;1.77;;;18.20;70.50;;;;;;5037314;28;20187;-74
2022/09/23 08:14:16;;;;;;;5.87;2.20;;;18.20;69.20;;;;;;5035880;28;20319;-75
2022/09/23 08:16:45;;;;;;;4.97;1.80;;;18.20;68.70;;;;;;5044120;28;20246;-75
2022/09/23 08:19:14;;;;;;;4.93;1.77;;;18.20;68.60;;;;;;5028137;28;20195;-75
2022/09/23 08:21:46;;;;;;;2.90;1.50;;;18.30;68.50;;;;;;5033005;28;20196;-75
2022/09/23 08:24:17;;;;;;;6.30;1.93;;;18.30;68.60;;;;;;5029689;28;20664;-75
2022/09/23 08:26:47;;;;;;;6.57;1.70;;;18.40;68.80;;;;;;5028072;28;20600;-75
2022/09/23 08:29:17;;;;;;;2.77;1.50;;;18.50;68.90;;;;;;5033324;28;20261;-75
2022/09/23 08:31:45;;;;;;;3.37;1.80;;;18.50;68.40;;;;;;5031332;28;20204;-75
2022/09/23 08:34:14;;;;;;;6.93;1.83;;;18.50;67.90;;;;;;5033329;28;20239;-75
2022/09/23 08:36:42;;;;;;;2.37;1.27;;;18.60;68.10;;;;;;5019836;28;20656;-76
2022/09/23 08:39:15;;;;;;;4.50;1.30;;;18.60;68.00;;;;;;5030617;28;20250;-76
2022/09/23 08:42:05;;;;;;;3.07;1.40;;;18.60;67.80;;;;;;5030514;28;20187;-77
2022/09/23 08:44:43;;;;;;;3.67;1.50;;;18.70;66.80;;;;;;5034785;28;20216;-76
2022/09/23 08:47:18;;;;;;;2.90;1.33;;;18.70;66.20;;;;;;5034400;28;20219;-76
2022/09/23 08:49:55;;;;;;;7.53;1.50;;;18.70;66.20;;;;;;5029198;28;20199;-76
2022/09/23 08:52:31;;;;;;;3.37;1.87;;;18.70;66.40;;;;;;5027104;28;20312;-75
2022/09/23 08:55:01;;;;;;;4.57;1.80;;;18.70;66.60;;;;;;5029140;28;20212;-80
2022/09/23 08:57:41;;;;;;;2.83;1.50;;;18.70;67.00;;;;;;5028140;28;20215;-77
2022/09/23 09:00:15;;;;;;;6.03;1.87;;;18.70;66.70;;;;;;5026131;28;20218;-77
2022/09/23 09:02:44;;;;;;;7.20;1.90;;;18.70;66.80;;;;;;5020404;28;20199;-76
2022/09/23 09:05:25;;;;;;;3.17;1.70;;;18.60;66.30;;;;;;5016145;28;20617;-76
2022/09/23 09:07:56;;;;;;;2.87;1.40;;;18.60;66.30;;;;;;5024877;28;20218;-76
2022/09/23 09:10:30;;;;;;;3.10;1.40;;;18.60;66.20;;;;;;5018254;28;20227;-74
2022/09/23 09:13:06;;;;;;;3.53;1.37;;;18.70;66.30;;;;;;5029777;28;20260;-74
2022/09/23 09:15:41;;;;;;;3.03;1.40;;;18.80;66.00;;;;;;5022319;28;20273;-76
2022/09/23 09:18:18;;;;;;;3.53;1.70;;;18.90;66.10;;;;;;5028161;28;20201;-76
2022/09/23 09:20:57;;;;;;;4.20;1.90;;;18.90;66.20;;;;;;5030685;28;20666;-74
2022/09/23 09:23:33;;;;;;;2.30;1.20;;;18.90;65.60;;;;;;5024964;28;20202;-75
2022/09/23 09:26:04;;;;;;;1.90;1.27;;;19.00;65.20;;;;;;5028688;28;20226;-76
2022/09/23 09:28:38;;;;;;;2.83;1.33;;;19.00;64.10;;;;;;5031540;28;20238;-74
2022/09/23 09:31:23;;;;;;;2.90;1.50;;;19.00;63.20;;;;;;5032442;28;20199;-75
2022/09/23 09:33:57;;;;;;;2.67;1.40;;;19.00;63.30;;;;;;5017626;28;20222;-76
2022/09/23 09:36:36;;;;;;;2.37;1.30;;;19.10;63.50;;;;;;5009960;28;20234;-76
2022/09/23 09:39:05;;;;;;;2.37;1.20;;;19.20;63.60;;;;;;4997115;28;20201;-76
2022/09/23 09:41:36;;;;;;;3.10;1.63;;;19.30;64.20;;;;;;5012434;28;20684;-74
2022/09/23 09:44:17;;;;;;;3.53;1.33;;;19.30;63.90;;;;;;5008280;28;20270;-75
2022/09/23 09:46:55;;;;;;;4.77;1.57;;;19.40;63.60;;;;;;5010377;28;20193;-74
2022/09/23 09:49:31;;;;;;;2.87;1.80;;;19.40;63.20;;;;;;5005329;28;20207;-73
2022/09/23 09:52:22;;;;;;;1.93;1.40;;;19.40;62.40;;;;;;5015477;28;20199;-74
2022/09/23 09:54:58;;;;;;;2.15;1.20;;;19.40;62.90;;;;;;5009339;28;20275;-74
2022/09/23 09:57:39;;;;;;;2.10;1.33;;;19.50;63.00;;;;;;5010567;28;20188;-74
2022/09/23 10:00:41;;;;;;;2.70;1.43;;;19.60;63.50;;;;;;5009688;28;20287;-74
2022/09/23 10:03:30;;;;;;;2.92;1.75;;;19.70;63.20;;;;;;5009569;28;20771;-75
2022/09/23 10:05:59;;;;;;;2.25;1.30;;;19.80;63.30;;;;;;5001334;28;20226;-73
2022/09/23 10:08:32;;;;;;;2.95;1.55;;;19.80;63.20;;;;;;5003523;28;20216;-75
2022/09/23 10:11:03;;;;;;;2.33;1.38;;;19.80;63.10;;;;;;5009914;28;20204;-74
2022/09/23 10:13:34;;;;;;;2.75;1.30;;;19.90;62.30;;;;;;5009253;28;20668;-75
2022/09/23 10:16:03;;;;;;;2.13;1.38;;;19.90;62.50;;;;;;5003947;28;20308;-75
2022/09/23 10:18:36;;;;;;;1.75;1.25;;;19.90;61.90;;;;;;5007311;28;20228;-76
2022/09/23 10:21:11;;;;;;;2.33;1.05;;;19.90;62.40;;;;;;5005768;28;20189;-75
2022/09/23 10:23:42;;;;;;;3.50;2.23;;;19.80;62.10;;;;;;5003271;28;20644;-76
2022/09/23 10:26:12;;;;;;;3.13;1.50;;;19.80;61.90;;;;;;5009952;28;20196;-76
2022/09/23 10:28:47;;;;;;;2.70;1.47;;;19.70;61.50;;;;;;5000295;28;20287;-76
2022/09/23 10:31:23;;;;;;;1.93;1.13;;;19.60;61.30;;;;;;5005620;28;20242;-76
2022/09/23 10:33:54;;;;;;;2.23;1.30;;;19.60;61.50;;;;;;5007989;28;20224;-75
2022/09/23 10:36:23;;;;;;;1.93;1.10;;;19.70;62.10;;;;;;5003017;28;20216;-76
2022/09/23 10:46:36;;;;;;;2.23;1.30;;;19.70;61.70;;;;;;5009666;28;20239;-75
2022/09/23 10:47:51;;;;;;;2.13;0.90;;;19.70;61.90;;;;;;5004277;28;20279;-74
2022/09/23 10:50:38;;;;;;;2.27;1.20;;;19.80;61.90;;;;;;5008712;28;20228;-75
2022/09/23 10:53:17;;;;;;;1.50;1.10;;;19.80;61.70;;;;;;5003211;28;20185;-75
2022/09/23 10:56:04;;;;;;;2.43;1.20;;;19.80;61.80;;;;;;5005473;28;20240;-78
2022/09/23 10:59:07;;;;;;;1.95;1.30;;;19.90;62.00;;;;;;5009798;28;20219;-75
2022/09/23 11:01:51;;;;;;;5.03;1.33;;;20.00;61.80;;;;;;4975437;28;20278;-76
2022/09/23 11:04:51;;;;;;;2.63;1.13;;;19.90;61.40;;;;;;5005437;28;20188;-75
2022/09/23 11:07:26;;;;;;;2.23;1.37;;;20.00;61.50;;;;;;5003120;28;20220;-77
2022/09/23 11:10:19;;;;;;;1.77;1.00;;;20.00;61.50;;;;;;5006712;28;20198;-75
2022/09/23 11:13:18;;;;;;;2.37;1.13;;;20.10;61.70;;;;;;4983550;28;20204;-75
2022/09/23 11:15:58;;;;;;;2.55;1.25;;;20.10;62.10;;;;;;5003237;28;20246;-75
2022/09/23 11:19:02;;;;;;;1.00;0.80;;;20.10;61.20;;;;;;5002910;28;20223;-75
2022/09/23 11:21:55;;;;;;;1.90;1.20;;;20.10;61.10;;;;;;4994495;28;20664;-74
2022/09/23 11:24:39;;;;;;;1.48;1.08;;;20.10;60.90;;;;;;4996910;28;20189;-75
2022/09/23 11:27:17;;;;;;;2.93;1.10;;;20.10;61.00;;;;;;5009109;28;20223;-73
2022/09/23 11:30:06;;;;;;;4.40;0.83;;;20.10;60.90;;;;;;5008761;28;20239;-73
2022/09/23 11:33:06;;;;;;;1.02;0.82;;;19.90;60.50;;;;;;5004395;28;20192;-74
2022/09/23 11:35:41;;;;;;;2.13;1.00;;;19.90;60.80;;;;;;4994013;28;20227;-74
2022/09/23 11:38:13;;;;;;;1.60;1.00;;;19.90;60.90;;;;;;5010598;28;20255;-74
2022/09/23 11:40:45;;;;;;;1.67;1.00;;;19.90;61.20;;;;;;5009815;28;20237;-76
2022/09/23 11:43:22;;;;;;;3.03;1.43;;;20.00;61.30;;;;;;5001242;28;20197;-75
2022/09/23 11:45:57;;;;;;;2.33;1.37;;;20.10;61.50;;;;;;5010427;28;20589;-73
2022/09/23 11:48:36;;;;;;;2.93;1.07;;;20.20;61.70;;;;;;5004064;28;20215;-74
2022/09/23 11:51:13;;;;;;;1.80;0.80;;;20.30;61.50;;;;;;5010962;28;20648;-74
2022/09/23 11:53:45;;;;;;;1.98;1.15;;;20.30;59.80;;;;;;4976890;28;20235;-75
2022/09/23 11:56:20;;;;;;;2.35;1.10;;;20.20;59.20;;;;;;5007595;28;20278;-75
2022/09/23 11:59:06;;;;;;;1.27;0.83;;;20.20;60.20;;;;;;5008438;28;20200;-76
2022/09/23 12:01:42;;;;;;;1.20;0.80;;;20.20;59.30;;;;;;5010885;28;20570;-74
2022/09/23 12:04:19;;;;;;;1.67;0.90;;;20.30;59.40;;;;;;5011150;28;20567;-74
2022/09/23 12:06:54;;;;;;;3.15;0.80;;;20.20;59.20;;;;;;5012496;28;20318;-75
2022/09/23 12:09:27;;;;;;;1.70;0.98;;;20.30;58.90;;;;;;5006716;28;20226;-75
2022/09/23 12:12:22;;;;;;;0.75;0.68;;;20.40;59.70;;;;;;5007235;28;20287;-75
2022/09/23 12:15:00;;;;;;;1.75;0.77;;;20.40;57.60;;;;;;5012739;28;20298;-76
2022/09/23 12:18:02;;;;;;;2.67;0.82;;;20.60;58.00;;;;;;5013860;28;20250;-74
2022/09/23 12:21:00;;;;;;;3.50;0.90;;;20.60;57.70;;;;;;5006223;28;20199;-74
2022/09/23 12:23:45;;;;;;;1.10;0.60;;;20.70;57.40;;;;;;4982375;28;20197;-74
2022/09/23 12:26:17;;;;;;;2.38;0.82;;;20.70;57.10;;;;;;5012214;28;20220;-75
2022/09/23 12:28:48;;;;;;;1.67;0.80;;;20.80;57.50;;;;;;5007506;28;20232;-75
2022/09/23 12:31:19;;;;;;;2.08;1.00;;;20.80;57.60;;;;;;5004086;28;20193;-75
2022/09/23 12:33:52;;;;;;;1.20;0.75;;;20.80;57.50;;;;;;5005882;28;20283;-75
2022/09/23 12:36:26;;;;;;;1.35;1.00;;;20.80;57.50;;;;;;5007102;28;20205;-75
2022/09/23 12:39:02;;;;;;;1.13;0.73;;;20.80;57.30;;;;;;5010929;28;20188;-75
2022/09/23 12:41:36;;;;;;;1.13;0.75;;;20.80;57.00;;;;;;5006286;28;20598;-75
2022/09/23 12:44:30;;;;;;;3.50;0.73;;;20.70;56.90;;;;;;5006504;28;20188;-75
2022/09/23 12:47:30;;;;;;;2.15;0.90;;;20.80;57.40;;;;;;4997068;28;20605;-74
2022/09/23 12:49:59;;;;;;;1.67;0.80;;;20.90;57.60;;;;;;5013777;28;20606;-73
2022/09/23 12:52:30;;;;;;;3.97;1.10;;;20.90;57.30;;;;;;5009449;28;20657;-74
2022/09/23 12:55:38;;;;;;;3.83;0.90;;;20.90;56.50;;;;;;5007438;28;20279;-73
2022/09/23 12:58:38;;;;;;;0.90;0.70;;;20.90;56.20;;;;;;5012225;28;20259;-74
2022/09/23 13:01:07;;;;;;;0.85;0.70;;;20.90;56.80;;;;;;5009907;28;20235;-74
2022/09/23 13:06:40;;;;;;;1.83;0.90;;;20.90;56.90;;;;;;5011736;28;20697;-74
2022/09/23 13:09:14;;;;;;;1.48;0.60;;;21.00;57.20;;;;;;5009207;28;20193;-74
2022/09/23 13:11:46;;;;;;;1.80;1.10;;;21.10;56.80;;;;;;5010818;28;20192;-78
2022/09/23 13:14:20;;;;;;;1.25;0.70;;;21.20;56.60;;;;;;5002050;28;20649;-75
2022/09/23 13:16:57;;;;;;;2.25;0.90;;;21.30;56.30;;;;;;5003702;28;20743;-74
2022/09/23 13:19:46;;;;;;;1.55;0.65;;;21.40;55.80;;;;;;5004585;28;20191;-74
2022/09/23 13:22:14;;;;;;;1.30;0.90;;;21.30;55.40;;;;;;5003910;28;20200;-75
2022/09/23 13:24:46;;;;;;;1.23;0.80;;;21.30;55.50;;;;;;5004918;28;20196;-74
2022/09/23 13:27:26;;;;;;;1.92;0.70;;;21.20;55.60;;;;;;5008548;28;20646;-75
2022/09/23 13:30:00;;;;;;;2.05;0.88;;;21.10;55.90;;;;;;5005280;28;20219;-74